sensor_id;sensor_type;location;lat;lon;timestamp;temperature;humidity
6879;DHT22;3478;51.462;7.338;2024-01-27T00:02:32;4.00;99.90
6879;DHT22;3478;51.462;7.338;2024-01-27T00:07:34;4.00;1.00
6879;DHT22;3478;51.462;7.338;2024-01-27T00:12:36;3.90;1.00
6879;DHT22;3478;51.462;7.338;2024-01-27T00:17:39;4.00;99.90
6879;DHT22;3478;51.462;7.338;2024-01-27T00:22:41;4.00;99.90
6879;DHT22;3478;51.462;7.338;2024-01-27T00:27:43;3.90;1.00
6879;DHT22;3478;51.462;7.338;2024-01-27T00:32:46;3.90;1.00
6879;DHT22;3478;51.462;7.338;2024-01-27T00:37:48;3.80;1.00
6879;DHT22;3478;51.462;7.338;2024-01-27T00:42:50;3.80;99.90
6879;DHT22;3478;51.462;7.338;2024-01-27T00:47:53;3.80;1.00
6879;DHT22;3478;51.462;7.338;2024-01-27T00:52:55;3.80;99.90
6879;DHT22;3478;51.462;7.338;2024-01-27T00:57:57;3.80;99.90
6879;DHT22;3478;51.462;7.338;2024-01-27T01:03:00;3.80;99.90
6879;DHT22;3478;51.462;7.338;2024-01-27T01:08:02;3.80;99.90
6879;DHT22;3478;51.462;7.338;2024-01-27T01:13:04;3.70;99.90
6879;DHT22;3478;51.462;7.338;2024-01-27T01:18:08;3.70;1.00
6879;DHT22;3478;51.462;7.338;2024-01-27T01:23:09;3.70;99.90
6879;DHT22;3478;51.462;7.338;2024-01-27T01:28:11;3.70;99.90
6879;DHT22;3478;51.462;7.338;2024-01-27T01:33:14;3.70;99.90
6879;DHT22;3478;51.462;7.338;2024-01-27T01:38:16;3.70;99.90
6879;DHT22;3478;51.462;7.338;2024-01-27T01:43:18;3.60;99.90
6879;DHT22;3478;51.462;7.338;2024-01-27T01:48:21;3.60;99.90
6879;DHT22;3478;51.462;7.338;2024-01-27T01:53:23;3.60;99.90
6879;DHT22;3478;51.462;7.338;2024-01-27T01:58:25;3.60;99.90
6879;DHT22;3478;51.462;7.338;2024-01-27T02:03:35;3.70;99.90
6879;DHT22;3478;51.462;7.338;2024-01-27T02:08:37;3.60;99.90
6879;DHT22;3478;51.462;7.338;2024-01-27T02:13:39;3.60;99.90
6879;DHT22;3478;51.462;7.338;2024-01-27T02:18:42;3.50;1.00
6879;DHT22;3478;51.462;7.338;2024-01-27T02:23:44;3.50;99.90
6879;DHT22;3478;51.462;7.338;2024-01-27T02:28:47;3.50;1.00
6879;DHT22;3478;51.462;7.338;2024-01-27T02:33:49;3.50;1.00
6879;DHT22;3478;51.462;7.338;2024-01-27T02:38:51;3.40;1.00
6879;DHT22;3478;51.462;7.338;2024-01-27T02:43:54;3.40;1.00
6879;DHT22;3478;51.462;7.338;2024-01-27T02:48:56;3.40;1.00
6879;DHT22;3478;51.462;7.338;2024-01-27T02:53:58;3.40;1.00
6879;DHT22;3478;51.462;7.338;2024-01-27T02:59:01;3.40;1.00
6879;DHT22;3478;51.462;7.338;2024-01-27T03:04:03;3.30;1.00
6879;DHT22;3478;51.462;7.338;2024-01-27T03:09:05;3.30;1.00
6879;DHT22;3478;51.462;7.338;2024-01-27T03:14:08;3.30;1.00
6879;DHT22;3478;51.462;7.338;2024-01-27T03:19:11;3.20;1.00
6879;DHT22;3478;51.462;7.338;2024-01-27T03:24:13;3.10;1.00
6879;DHT22;3478;51.462;7.338;2024-01-27T03:29:16;3.10;54.60
6879;DHT22;3478;51.462;7.338;2024-01-27T03:34:18;3.10;40.00
6879;DHT22;3478;51.462;7.338;2024-01-27T03:39:20;3.10;99.90
6879;DHT22;3478;51.462;7.338;2024-01-27T03:44:24;3.10;99.90
6879;DHT22;3478;51.462;7.338;2024-01-27T03:49:25;3.10;99.90
6879;DHT22;3478;51.462;7.338;2024-01-27T03:54:27;3.00;99.90
6879;DHT22;3478;51.462;7.338;2024-01-27T03:59:30;3.00;99.90
6879;DHT22;3478;51.462;7.338;2024-01-27T04:04:32;3.00;99.90
6879;DHT22;3478;51.462;7.338;2024-01-27T04:09:34;2.90;99.90
6879;DHT22;3478;51.462;7.338;2024-01-27T04:14:38;2.90;99.90
6879;DHT22;3478;51.462;7.338;2024-01-27T04:19:39;2.90;1.00
6879;DHT22;3478;51.462;7.338;2024-01-27T04:24:41;2.90;1.00
6879;DHT22;3478;51.462;7.338;2024-01-27T04:29:44;2.80;77.60
6879;DHT22;3478;51.462;7.338;2024-01-27T04:34:46;2.80;1.00
6879;DHT22;3478;51.462;7.338;2024-01-27T04:39:48;2.70;1.00
6879;DHT22;3478;51.462;7.338;2024-01-27T04:44:52;2.70;1.00
6879;DHT22;3478;51.462;7.338;2024-01-27T04:49:54;2.70;1.00
6879;DHT22;3478;51.462;7.338;2024-01-27T04:54:56;2.70;1.00
6879;DHT22;3478;51.462;7.338;2024-01-27T05:00:00;2.70;99.90
6879;DHT22;3478;51.462;7.338;2024-01-27T05:05:02;2.60;1.00
6879;DHT22;3478;51.462;7.338;2024-01-27T05:10:05;2.70;13.50
6879;DHT22;3478;51.462;7.338;2024-01-27T05:15:10;2.70;1.00
6879;DHT22;3478;51.462;7.338;2024-01-27T05:20:12;2.60;1.00
6879;DHT22;3478;51.462;7.338;2024-01-27T05:25:14;2.60;1.00
6879;DHT22;3478;51.462;7.338;2024-01-27T05:30:18;2.60;1.00
6879;DHT22;3478;51.462;7.338;2024-01-27T05:35:20;2.50;1.00
6879;DHT22;3478;51.462;7.338;2024-01-27T05:40:22;2.50;1.00
6879;DHT22;3478;51.462;7.338;2024-01-27T05:45:25;2.60;1.00
6879;DHT22;3478;51.462;7.338;2024-01-27T05:50:27;2.60;1.00
6879;DHT22;3478;51.462;7.338;2024-01-27T05:55:31;2.60;99.90
6879;DHT22;3478;51.462;7.338;2024-01-27T06:00:35;2.50;1.00
6879;DHT22;3478;51.462;7.338;2024-01-27T06:05:37;2.50;1.00
6879;DHT22;3478;51.462;7.338;2024-01-27T06:10:39;2.50;1.00
6879;DHT22;3478;51.462;7.338;2024-01-27T06:15:42;2.50;13.60
6879;DHT22;3478;51.462;7.338;2024-01-27T06:20:44;2.50;99.50
6879;DHT22;3478;51.462;7.338;2024-01-27T06:25:46;2.60;24.40
6879;DHT22;3478;51.462;7.338;2024-01-27T06:30:49;2.60;99.90
6879;DHT22;3478;51.462;7.338;2024-01-27T06:35:51;2.60;1.00
6879;DHT22;3478;51.462;7.338;2024-01-27T06:40:53;2.50;99.90
6879;DHT22;3478;51.462;7.338;2024-01-27T06:45:56;2.40;99.90
6879;DHT22;3478;51.462;7.338;2024-01-27T06:51:01;2.40;1.00
6879;DHT22;3478;51.462;7.338;2024-01-27T06:56:03;2.40;1.00
6879;DHT22;3478;51.462;7.338;2024-01-27T07:01:08;2.40;1.00
6879;DHT22;3478;51.462;7.338;2024-01-27T07:06:10;2.40;1.00
6879;DHT22;3478;51.462;7.338;2024-01-27T07:11:12;2.50;1.00
6879;DHT22;3478;51.462;7.338;2024-01-27T07:16:15;2.60;53.40
6879;DHT22;3478;51.462;7.338;2024-01-27T07:21:17;2.60;1.00
6879;DHT22;3478;51.462;7.338;2024-01-27T07:26:19;2.60;1.00
6879;DHT22;3478;51.462;7.338;2024-01-27T07:31:23;2.70;1.00
6879;DHT22;3478;51.462;7.338;2024-01-27T07:36:27;2.80;1.00
6879;DHT22;3478;51.462;7.338;2024-01-27T07:41:32;2.80;99.90
6879;DHT22;3478;51.462;7.338;2024-01-27T07:46:36;2.80;99.90
6879;DHT22;3478;51.462;7.338;2024-01-27T07:51:37;2.80;99.90
6879;DHT22;3478;51.462;7.338;2024-01-27T07:56:39;2.80;99.90
6879;DHT22;3478;51.462;7.338;2024-01-27T08:01:43;2.90;99.90
6879;DHT22;3478;51.462;7.338;2024-01-27T08:06:49;2.90;99.90
6879;DHT22;3478;51.462;7.338;2024-01-27T08:11:51;3.00;99.90
6879;DHT22;3478;51.462;7.338;2024-01-27T08:16:54;3.00;99.90
6879;DHT22;3478;51.462;7.338;2024-01-27T08:21:56;3.10;99.90
6879;DHT22;3478;51.462;7.338;2024-01-27T08:26:58;3.10;99.90
6879;DHT22;3478;51.462;7.338;2024-01-27T08:32:02;3.20;99.90
6879;DHT22;3478;51.462;7.338;2024-01-27T08:37:14;3.30;99.90
6879;DHT22;3478;51.462;7.338;2024-01-27T08:42:16;3.40;99.90
6879;DHT22;3478;51.462;7.338;2024-01-27T08:47:19;3.50;99.90
6879;DHT22;3478;51.462;7.338;2024-01-27T08:52:22;3.60;99.90
6879;DHT22;3478;51.462;7.338;2024-01-27T08:57:24;3.80;99.90
6879;DHT22;3478;51.462;7.338;2024-01-27T09:02:27;4.10;99.90
6879;DHT22;3478;51.462;7.338;2024-01-27T09:07:29;4.40;99.90
6879;DHT22;3478;51.462;7.338;2024-01-27T09:12:31;4.70;99.90
6879;DHT22;3478;51.462;7.338;2024-01-27T09:17:34;4.90;99.90
6879;DHT22;3478;51.462;7.338;2024-01-27T09:22:36;5.00;99.90
6879;DHT22;3478;51.462;7.338;2024-01-27T09:27:38;5.20;99.90
6879;DHT22;3478;51.462;7.338;2024-01-27T09:32:41;5.40;99.90
6879;DHT22;3478;51.462;7.338;2024-01-27T09:37:43;5.60;99.90
6879;DHT22;3478;51.462;7.338;2024-01-27T09:42:50;6.00;99.90
6879;DHT22;3478;51.462;7.338;2024-01-27T09:47:57;6.10;99.90
6879;DHT22;3478;51.462;7.338;2024-01-27T09:53:00;6.40;99.90
6879;DHT22;3478;51.462;7.338;2024-01-27T09:58:02;6.60;99.90
6879;DHT22;3478;51.462;7.338;2024-01-27T10:03:08;6.90;99.90
6879;DHT22;3478;51.462;7.338;2024-01-27T10:08:10;6.90;99.90
6879;DHT22;3478;51.462;7.338;2024-01-27T10:13:14;7.30;99.90
6879;DHT22;3478;51.462;7.338;2024-01-27T10:18:19;7.50;99.90
6879;DHT22;3478;51.462;7.338;2024-01-27T10:23:22;7.40;99.90
6879;DHT22;3478;51.462;7.338;2024-01-27T10:28:25;7.30;99.90
6879;DHT22;3478;51.462;7.338;2024-01-27T10:33:28;7.60;99.90
6879;DHT22;3478;51.462;7.338;2024-01-27T10:38:35;7.30;99.90
6879;DHT22;3478;51.462;7.338;2024-01-27T10:43:39;6.90;99.90
6879;DHT22;3478;51.462;7.338;2024-01-27T10:48:42;6.60;99.90
6879;DHT22;3478;51.462;7.338;2024-01-27T10:53:49;6.60;99.90
6879;DHT22;3478;51.462;7.338;2024-01-27T10:58:54;6.50;99.90
6879;DHT22;3478;51.462;7.338;2024-01-27T11:03:58;6.60;99.90
6879;DHT22;3478;51.462;7.338;2024-01-27T11:09:01;6.60;99.90
6879;DHT22;3478;51.462;7.338;2024-01-27T11:14:06;6.60;99.90
6879;DHT22;3478;51.462;7.338;2024-01-27T11:19:11;6.60;99.90
6879;DHT22;3478;51.462;7.338;2024-01-27T11:24:14;6.70;99.90
6879;DHT22;3478;51.462;7.338;2024-01-27T11:29:16;6.70;99.90
6879;DHT22;3478;51.462;7.338;2024-01-27T11:34:22;6.90;99.90
6879;DHT22;3478;51.462;7.338;2024-01-27T11:39:25;7.00;99.90
6879;DHT22;3478;51.462;7.338;2024-01-27T11:44:27;7.10;99.90
6879;DHT22;3478;51.462;7.338;2024-01-27T11:49:30;7.30;99.90
6879;DHT22;3478;51.462;7.338;2024-01-27T11:54:32;7.30;99.90
6879;DHT22;3478;51.462;7.338;2024-01-27T11:59:34;7.30;99.90
6879;DHT22;3478;51.462;7.338;2024-01-27T12:04:37;7.30;99.90
6879;DHT22;3478;51.462;7.338;2024-01-27T12:09:39;7.50;99.90
6879;DHT22;3478;51.462;7.338;2024-01-27T12:14:41;7.50;99.90
6879;DHT22;3478;51.462;7.338;2024-01-27T12:19:48;7.60;99.90
6879;DHT22;3478;51.462;7.338;2024-01-27T12:24:50;7.70;99.90
6879;DHT22;3478;51.462;7.338;2024-01-27T12:29:52;7.90;99.90
6879;DHT22;3478;51.462;7.338;2024-01-27T12:34:55;8.00;99.90
6879;DHT22;3478;51.462;7.338;2024-01-27T12:39:59;8.10;99.90
6879;DHT22;3478;51.462;7.338;2024-01-27T12:45:01;8.20;99.90
6879;DHT22;3478;51.462;7.338;2024-01-27T12:50:04;8.20;99.90
6879;DHT22;3478;51.462;7.338;2024-01-27T12:55:07;8.30;99.90
6879;DHT22;3478;51.462;7.338;2024-01-27T13:00:10;8.40;99.90
6879;DHT22;3478;51.462;7.338;2024-01-27T13:05:14;8.60;99.90
6879;DHT22;3478;51.462;7.338;2024-01-27T13:10:15;8.70;99.90
6879;DHT22;3478;51.462;7.338;2024-01-27T13:15:17;8.80;99.90
6879;DHT22;3478;51.462;7.338;2024-01-27T13:20:21;8.90;99.90
6879;DHT22;3478;51.462;7.338;2024-01-27T13:25:23;9.00;99.90
6879;DHT22;3478;51.462;7.338;2024-01-27T13:30:25;9.10;99.30
6879;DHT22;3478;51.462;7.338;2024-01-27T13:35:28;9.50;99.20
6879;DHT22;3478;51.462;7.338;2024-01-27T13:40:30;11.70;95.00
6879;DHT22;3478;51.462;7.338;2024-01-27T13:45:32;14.20;81.10
6879;DHT22;3478;51.462;7.338;2024-01-27T13:50:35;14.50;73.00
6879;DHT22;3478;51.462;7.338;2024-01-27T13:55:37;15.20;68.30
6879;DHT22;3478;51.462;7.338;2024-01-27T14:00:40;15.60;67.00
6879;DHT22;3478;51.462;7.338;2024-01-27T14:05:44;16.30;64.60
6879;DHT22;3478;51.462;7.338;2024-01-27T14:10:47;17.40;63.30
6879;DHT22;3478;51.462;7.338;2024-01-27T14:15:52;17.10;59.30
6879;DHT22;3478;51.462;7.338;2024-01-27T14:20:55;16.50;58.80
6879;DHT22;3478;51.462;7.338;2024-01-27T14:25:57;15.50;59.50
6879;DHT22;3478;51.462;7.338;2024-01-27T14:30:59;15.30;59.20
6879;DHT22;3478;51.462;7.338;2024-01-27T14:36:03;15.10;60.00
6879;DHT22;3478;51.462;7.338;2024-01-27T14:41:05;15.10;60.60
6879;DHT22;3478;51.462;7.338;2024-01-27T14:46:07;14.10;62.70
6879;DHT22;3478;51.462;7.338;2024-01-27T14:51:10;13.20;64.20
6879;DHT22;3478;51.462;7.338;2024-01-27T14:56:13;12.60;67.10
6879;DHT22;3478;51.462;7.338;2024-01-27T15:01:15;11.60;67.60
6879;DHT22;3478;51.462;7.338;2024-01-27T15:06:18;11.10;70.50
6879;DHT22;3478;51.462;7.338;2024-01-27T15:11:21;10.40;71.50
6879;DHT22;3478;51.462;7.338;2024-01-27T15:16:23;9.90;75.70
6879;DHT22;3478;51.462;7.338;2024-01-27T15:21:28;9.60;77.50
6879;DHT22;3478;51.462;7.338;2024-01-27T15:26:31;9.40;79.30
6879;DHT22;3478;51.462;7.338;2024-01-27T15:31:33;9.30;80.10
6879;DHT22;3478;51.462;7.338;2024-01-27T15:36:36;9.10;82.20
6879;DHT22;3478;51.462;7.338;2024-01-27T15:41:38;8.90;84.00
6879;DHT22;3478;51.462;7.338;2024-01-27T15:46:40;8.60;85.50
6879;DHT22;3478;51.462;7.338;2024-01-27T15:51:43;8.30;86.60
6879;DHT22;3478;51.462;7.338;2024-01-27T15:56:45;8.00;88.40
6879;DHT22;3478;51.462;7.338;2024-01-27T16:01:47;7.80;90.20
6879;DHT22;3478;51.462;7.338;2024-01-27T16:06:50;7.70;90.80
6879;DHT22;3478;51.462;7.338;2024-01-27T16:11:52;7.50;91.90
6879;DHT22;3478;51.462;7.338;2024-01-27T16:16:57;7.20;93.30
6879;DHT22;3478;51.462;7.338;2024-01-27T16:22:00;7.00;94.20
6879;DHT22;3478;51.462;7.338;2024-01-27T16:27:02;6.90;95.30
6879;DHT22;3478;51.462;7.338;2024-01-27T16:32:05;6.80;95.90
6879;DHT22;3478;51.462;7.338;2024-01-27T16:37:08;6.70;96.70
6879;DHT22;3478;51.462;7.338;2024-01-27T16:42:10;6.60;97.70
6879;DHT22;3478;51.462;7.338;2024-01-27T16:47:12;6.50;98.20
6879;DHT22;3478;51.462;7.338;2024-01-27T16:52:17;6.50;98.60
6879;DHT22;3478;51.462;7.338;2024-01-27T16:57:19;6.40;99.10
6879;DHT22;3478;51.462;7.338;2024-01-27T17:02:21;6.30;99.20
6879;DHT22;3478;51.462;7.338;2024-01-27T17:07:24;6.20;99.70
6879;DHT22;3478;51.462;7.338;2024-01-27T17:12:26;6.00;99.90
6879;DHT22;3478;51.462;7.338;2024-01-27T17:17:28;5.90;99.90
6879;DHT22;3478;51.462;7.338;2024-01-27T17:22:32;5.70;99.90
6879;DHT22;3478;51.462;7.338;2024-01-27T17:27:34;5.60;99.90
6879;DHT22;3478;51.462;7.338;2024-01-27T17:32:37;5.60;99.90
6879;DHT22;3478;51.462;7.338;2024-01-27T17:37:44;5.60;99.90
6879;DHT22;3478;51.462;7.338;2024-01-27T17:42:46;5.60;99.90
6879;DHT22;3478;51.462;7.338;2024-01-27T17:47:47;5.50;99.90
6879;DHT22;3478;51.462;7.338;2024-01-27T17:52:57;5.40;99.90
6879;DHT22;3478;51.462;7.338;2024-01-27T17:57:59;5.30;99.90
6879;DHT22;3478;51.462;7.338;2024-01-27T18:03:01;5.20;99.90
6879;DHT22;3478;51.462;7.338;2024-01-27T18:08:05;5.10;99.90
6879;DHT22;3478;51.462;7.338;2024-01-27T18:13:07;5.00;99.90
6879;DHT22;3478;51.462;7.338;2024-01-27T18:18:09;5.00;99.90
6879;DHT22;3478;51.462;7.338;2024-01-27T18:23:12;4.90;99.90
6879;DHT22;3478;51.462;7.338;2024-01-27T18:28:14;4.90;99.90
6879;DHT22;3478;51.462;7.338;2024-01-27T18:33:16;4.80;99.90
6879;DHT22;3478;51.462;7.338;2024-01-27T18:38:21;4.70;99.90
6879;DHT22;3478;51.462;7.338;2024-01-27T18:43:23;4.70;99.90
6879;DHT22;3478;51.462;7.338;2024-01-27T18:48:25;4.60;99.90
6879;DHT22;3478;51.462;7.338;2024-01-27T18:53:28;4.50;99.90
6879;DHT22;3478;51.462;7.338;2024-01-27T18:58:34;4.50;99.90
6879;DHT22;3478;51.462;7.338;2024-01-27T19:03:35;4.60;99.90
6879;DHT22;3478;51.462;7.338;2024-01-27T19:08:39;4.50;99.90
6879;DHT22;3478;51.462;7.338;2024-01-27T19:13:41;4.40;99.90
6879;DHT22;3478;51.462;7.338;2024-01-27T19:18:43;4.30;99.90
6879;DHT22;3478;51.462;7.338;2024-01-27T19:23:46;4.20;99.90
6879;DHT22;3478;51.462;7.338;2024-01-27T19:28:48;4.10;99.90
6879;DHT22;3478;51.462;7.338;2024-01-27T19:33:50;4.00;99.90
6879;DHT22;3478;51.462;7.338;2024-01-27T19:38:53;4.00;99.90
6879;DHT22;3478;51.462;7.338;2024-01-27T19:43:56;3.90;99.90
6879;DHT22;3478;51.462;7.338;2024-01-27T19:48:57;3.80;99.90
6879;DHT22;3478;51.462;7.338;2024-01-27T19:54:01;3.70;99.90
6879;DHT22;3478;51.462;7.338;2024-01-27T19:59:02;3.70;99.90
6879;DHT22;3478;51.462;7.338;2024-01-27T20:04:04;3.70;99.90
6879;DHT22;3478;51.462;7.338;2024-01-27T20:09:07;3.90;99.90
6879;DHT22;3478;51.462;7.338;2024-01-27T20:14:09;4.00;99.90
6879;DHT22;3478;51.462;7.338;2024-01-27T20:19:12;4.10;99.90
6879;DHT22;3478;51.462;7.338;2024-01-27T20:24:16;4.20;99.90
6879;DHT22;3478;51.462;7.338;2024-01-27T20:29:18;4.10;99.90
6879;DHT22;3478;51.462;7.338;2024-01-27T20:34:20;3.90;99.90
6879;DHT22;3478;51.462;7.338;2024-01-27T20:39:23;3.80;99.90
6879;DHT22;3478;51.462;7.338;2024-01-27T20:44:25;3.70;99.90
6879;DHT22;3478;51.462;7.338;2024-01-27T20:49:27;3.80;99.90
6879;DHT22;3478;51.462;7.338;2024-01-27T20:54:33;3.80;99.90
6879;DHT22;3478;51.462;7.338;2024-01-27T20:59:35;3.80;99.90
6879;DHT22;3478;51.462;7.338;2024-01-27T21:04:37;3.70;99.90
6879;DHT22;3478;51.462;7.338;2024-01-27T21:09:40;3.60;99.90
6879;DHT22;3478;51.462;7.338;2024-01-27T21:14:42;3.40;99.90
6879;DHT22;3478;51.462;7.338;2024-01-27T21:19:44;3.30;99.90
6879;DHT22;3478;51.462;7.338;2024-01-27T21:24:50;3.30;99.90
6879;DHT22;3478;51.462;7.338;2024-01-27T21:29:52;3.20;99.90
6879;DHT22;3478;51.462;7.338;2024-01-27T21:34:54;3.10;99.90
6879;DHT22;3478;51.462;7.338;2024-01-27T21:39:57;3.10;99.90
6879;DHT22;3478;51.462;7.338;2024-01-27T21:45:00;3.10;99.90
6879;DHT22;3478;51.462;7.338;2024-01-27T21:50:02;3.00;99.90
6879;DHT22;3478;51.462;7.338;2024-01-27T21:55:06;2.80;99.90
6879;DHT22;3478;51.462;7.338;2024-01-27T22:00:09;2.80;99.90
6879;DHT22;3478;51.462;7.338;2024-01-27T22:05:11;2.80;99.90
6879;DHT22;3478;51.462;7.338;2024-01-27T22:10:14;3.00;99.90
6879;DHT22;3478;51.462;7.338;2024-01-27T22:15:18;3.00;99.90
6879;DHT22;3478;51.462;7.338;2024-01-27T22:20:19;2.90;99.90
6879;DHT22;3478;51.462;7.338;2024-01-27T22:25:23;2.70;99.90
6879;DHT22;3478;51.462;7.338;2024-01-27T22:30:24;2.70;99.90
6879;DHT22;3478;51.462;7.338;2024-01-27T22:35:26;2.70;99.90
6879;DHT22;3478;51.462;7.338;2024-01-27T22:40:30;2.80;99.90
6879;DHT22;3478;51.462;7.338;2024-01-27T22:45:31;2.90;99.90
6879;DHT22;3478;51.462;7.338;2024-01-27T22:50:33;2.90;99.90
6879;DHT22;3478;51.462;7.338;2024-01-27T22:55:37;2.70;99.90
6879;DHT22;3478;51.462;7.338;2024-01-27T23:00:38;2.60;99.90
6879;DHT22;3478;51.462;7.338;2024-01-27T23:05:41;2.70;99.90
6879;DHT22;3478;51.462;7.338;2024-01-27T23:10:44;2.80;99.90
6879;DHT22;3478;51.462;7.338;2024-01-27T23:15:46;2.90;99.90
6879;DHT22;3478;51.462;7.338;2024-01-27T23:20:48;3.00;99.90
6879;DHT22;3478;51.462;7.338;2024-01-27T23:25:51;3.00;99.90
6879;DHT22;3478;51.462;7.338;2024-01-27T23:30:53;3.10;99.90
6879;DHT22;3478;51.462;7.338;2024-01-27T23:35:55;3.00;99.90
6879;DHT22;3478;51.462;7.338;2024-01-27T23:40:58;3.00;99.90
6879;DHT22;3478;51.462;7.338;2024-01-27T23:46:00;2.90;99.90
6879;DHT22;3478;51.462;7.338;2024-01-27T23:51:02;2.90;99.90
6879;DHT22;3478;51.462;7.338;2024-01-27T23:56:06;3.00;99.90
